Yamaska, Canada
Current Conditions -  °F | °C
As of 10:00 PM on Monday 26 Jan 2015 (Local Time) from CYRQ Reporting Station
Clear Clear  
Wind Chill: -16°   Ceiling: Unl
Heat Index:   Visibility: 9mi
Dew Point: -8°   Wind: 9mph
Humidity: 72%   Direction: 20°NNE
Pressure: 30.26"   Gusts: NA
Location:  46°N, 72.92°W
Report Text: CYRQ 270300Z AUTO 02008KT 9SM CLR M18/M22 A3026 RMK SLP253
Loading
Personal Weather Stations






























Interactive Weather Map New forecast layout! Learn more

10-Day Weather Forecast

Advertisements
Track Severe Weather on mobile